createdAt,value
2019-04-28T00:00:29.301Z,20.27
2019-04-28T00:02:57.675Z,22.37
2019-04-28T00:05:26.396Z,27.93
2019-04-28T00:07:54.599Z,25.37
2019-04-28T00:10:22.765Z,26.73
2019-04-28T00:12:51.123Z,24.83
2019-04-28T00:15:20.827Z,26.77
2019-04-28T00:17:49.429Z,25.30
2019-04-28T00:20:24.980Z,49.83
2019-04-28T00:22:58.506Z,30.30
2019-04-28T00:25:28.491Z,35.37
2019-04-28T00:27:56.647Z,31.00
2019-04-28T00:30:25.216Z,28.57
2019-04-28T00:32:54.917Z,27.30
2019-04-28T00:35:23.387Z,29.97
2019-04-28T00:37:51.732Z,29.57
2019-04-28T00:40:21.671Z,31.03
2019-04-28T00:42:51.186Z,32.93
2019-04-28T00:45:21.483Z,28.57
2019-04-28T00:47:51.028Z,25.83
2019-04-28T00:50:19.317Z,24.20
2019-04-28T00:52:47.828Z,24.03
2019-04-28T00:55:16.180Z,34.73
2019-04-28T00:57:44.338Z,26.23
2019-04-28T01:00:13.402Z,27.93
2019-04-28T01:02:42.209Z,27.63
2019-04-28T01:05:11.368Z,28.13
2019-04-28T01:07:41.398Z,26.80
2019-04-28T01:10:11.412Z,27.90
2019-04-28T01:12:41.137Z,30.33
2019-04-28T01:15:11.205Z,35.10
2019-04-28T01:17:41.178Z,35.50
2019-04-28T01:20:20.149Z,33.27
2019-04-28T01:22:49.686Z,36.00
2019-04-28T01:25:18.005Z,30.83
2019-04-28T01:27:47.807Z,34.07
2019-04-28T01:30:23.534Z,29.67
2019-04-28T01:32:53.479Z,26.23
2019-04-28T01:35:22.767Z,26.83
2019-04-28T01:37:51.068Z,28.80
2019-04-28T01:40:20.491Z,27.20
2019-04-28T01:42:49.952Z,26.47
2019-04-28T01:45:18.279Z,28.57
2019-04-28T01:47:46.484Z,28.30
2019-04-28T01:50:14.852Z,30.00
2019-04-28T01:52:43.200Z,29.93
2019-04-28T01:55:11.538Z,37.93
2019-04-28T01:57:40.144Z,36.53
2019-04-28T02:00:22.262Z,31.93
2019-04-28T02:02:40.774Z,53.47
2019-04-28T02:05:09.707Z,34.13
2019-04-28T02:07:40.586Z,38.37
2019-04-28T02:10:10.280Z,43.63
2019-04-28T02:12:39.913Z,40.23
2019-04-28T02:15:10.470Z,36.03
2019-04-28T02:17:40.151Z,35.87
2019-04-28T02:20:10.384Z,38.87
2019-04-28T02:22:43.412Z,39.67
2019-04-28T02:25:12.241Z,40.07
2019-04-28T02:27:40.403Z,39.57
2019-04-28T02:30:11.365Z,38.90
2019-04-28T02:32:40.680Z,40.63
2019-04-28T02:35:10.638Z,44.63
2019-04-28T02:37:40.775Z,40.53
2019-04-28T02:40:10.678Z,40.43
2019-04-28T02:42:40.973Z,42.30
2019-04-28T02:45:11.670Z,42.03
2019-04-28T02:47:42.027Z,42.17
2019-04-28T02:50:13.291Z,44.13
2019-04-28T02:52:54.934Z,42.73
2019-04-28T02:55:23.834Z,52.07
2019-04-28T02:57:51.986Z,72.77
2019-04-28T03:00:21.593Z,98.73
2019-04-28T03:02:51.367Z,77.30
2019-04-28T03:05:21.485Z,58.30
2019-04-28T03:07:51.468Z,55.57
2019-04-28T03:10:21.437Z,59.07
2019-04-28T03:12:51.726Z,46.17
2019-04-28T03:15:20.534Z,42.67
2019-04-28T03:17:52.511Z,39.20
2019-04-28T03:20:21.132Z,32.13
2019-04-28T03:22:51.122Z,33.57
2019-04-28T03:25:35.162Z,31.80
2019-04-28T03:28:13.823Z,36.97
2019-04-28T03:30:46.689Z,33.10
2019-04-28T03:33:18.840Z,32.60
2019-04-28T03:35:47.005Z,31.90
2019-04-28T03:38:15.163Z,35.60
2019-04-28T03:40:44.372Z,35.10
2019-04-28T03:43:14.295Z,33.50
2019-04-28T03:45:56.371Z,32.50
2019-04-28T03:48:24.597Z,32.73
2019-04-28T03:50:52.766Z,32.87
2019-04-28T03:53:21.376Z,35.20
2019-04-28T03:55:51.286Z,37.20
2019-04-28T03:58:23.804Z,33.97
2019-04-28T04:00:50.941Z,37.80
2019-04-28T04:03:20.962Z,32.80
2019-04-28T04:05:50.756Z,30.13
2019-04-28T04:08:20.966Z,27.93
2019-04-28T04:11:02.314Z,27.83
2019-04-28T04:13:33.082Z,31.10
2019-04-28T04:16:03.086Z,31.93
2019-04-28T04:18:35.653Z,30.37
2019-04-28T04:21:03.805Z,28.90
2019-04-28T04:23:32.346Z,28.93
2019-04-28T04:26:01.639Z,29.50
2019-04-28T04:28:30.622Z,28.50
2019-04-28T04:31:02.445Z,29.03
2019-04-28T04:33:31.034Z,31.63
2019-04-28T04:36:01.322Z,33.53
2019-04-28T04:38:30.960Z,28.60
2019-04-28T04:41:01.473Z,26.83
2019-04-28T04:43:31.010Z,29.43
2019-04-28T04:46:14.396Z,27.80
2019-04-28T04:48:43.308Z,24.10
2019-04-28T04:51:11.803Z,23.10
2019-04-28T04:53:40.740Z,22.67
2019-04-28T04:56:10.471Z,22.63
2019-04-28T04:58:40.637Z,22.47
2019-04-28T05:01:10.658Z,22.77
2019-04-28T05:03:46.751Z,22.17
2019-04-28T05:06:32.661Z,26.27
2019-04-28T05:09:01.140Z,24.73
2019-04-28T05:11:29.980Z,27.30
2019-04-28T05:13:59.623Z,16.73
2019-04-28T05:16:29.650Z,19.63
2019-04-28T05:19:00.101Z,14.97
2019-04-28T05:21:32.604Z,13.70
2019-04-28T05:24:15.691Z,12.70
2019-04-28T05:26:47.561Z,9.70
2019-04-28T05:29:12.117Z,9.30
2019-04-28T05:31:40.276Z,10.60
2019-04-28T05:34:09.947Z,10.57
2019-04-28T05:36:42.415Z,10.30
2019-04-28T05:39:10.397Z,11.37
2019-04-28T05:41:40.204Z,11.13
2019-04-28T05:44:10.085Z,11.43
2019-04-28T05:46:40.042Z,9.60
2019-04-28T05:49:15.972Z,10.30
2019-04-28T05:51:51.891Z,11.07
2019-04-28T05:54:22.913Z,11.43
2019-04-28T05:57:02.349Z,12.33
2019-04-28T05:59:50.567Z,12.17
2019-04-28T06:02:21.783Z,13.07
2019-04-28T06:04:51.568Z,15.30
2019-04-28T06:07:21.417Z,13.77
2019-04-28T06:09:51.536Z,15.00
2019-04-28T06:12:21.611Z,14.93
2019-04-28T06:14:50.299Z,12.93
2019-04-28T06:17:20.649Z,12.63
2019-04-28T06:19:50.466Z,14.27
2019-04-28T06:22:19.229Z,13.93
2019-04-28T06:24:47.696Z,12.40
2019-04-28T06:27:16.312Z,12.73
2019-04-28T06:29:44.856Z,12.77
2019-04-28T06:32:13.559Z,12.40
2019-04-28T06:34:41.696Z,12.20
2019-04-28T06:37:09.904Z,13.07
2019-04-28T06:39:38.411Z,12.40
2019-04-28T06:42:07.580Z,13.13
2019-04-28T06:44:35.784Z,12.70
2019-04-28T06:47:03.942Z,12.47
2019-04-28T06:49:32.496Z,13.83
2019-04-28T06:52:01.026Z,12.83
2019-04-28T06:54:29.489Z,12.97
2019-04-28T06:56:58.244Z,13.30
2019-04-28T06:59:26.757Z,13.90
2019-04-28T07:01:55.001Z,14.67
2019-04-28T07:04:23.167Z,14.23
2019-04-28T07:06:51.666Z,15.13
2019-04-28T07:09:20.029Z,12.87
2019-04-28T07:11:48.192Z,13.73
2019-04-28T07:14:16.488Z,15.60
2019-04-28T07:16:45.676Z,16.97
2019-04-28T07:19:14.019Z,18.90
2019-04-28T07:21:53.484Z,15.77
2019-04-28T07:24:21.657Z,15.13
2019-04-28T07:26:50.148Z,14.13
2019-04-28T07:29:18.354Z,13.03
2019-04-28T07:31:47.323Z,7.80
2019-04-28T07:34:15.615Z,7.67
2019-04-28T07:36:43.804Z,10.77
2019-04-28T07:39:12.184Z,11.83
2019-04-28T07:41:40.513Z,16.97
2019-04-28T07:44:11.640Z,11.37
2019-04-28T07:46:39.800Z,12.10
2019-04-28T07:49:07.958Z,11.77
2019-04-28T07:51:43.283Z,13.77
2019-04-28T07:54:13.264Z,11.60
2019-04-28T07:56:41.733Z,18.23
2019-04-28T07:59:09.924Z,16.67
2019-04-28T08:01:38.147Z,11.83
2019-04-28T08:04:06.691Z,10.50
2019-04-28T08:06:35.283Z,8.57
2019-04-28T08:09:05.545Z,9.30
2019-04-28T08:11:34.147Z,8.17
2019-04-28T08:14:02.407Z,9.27
2019-04-28T08:16:30.943Z,8.80
2019-04-28T08:18:59.107Z,7.53
2019-04-28T08:21:27.765Z,9.90
2019-04-28T08:23:55.919Z,8.00
2019-04-28T08:26:24.653Z,7.07
2019-04-28T08:28:52.861Z,9.37
2019-04-28T08:31:22.960Z,10.73
2019-04-28T08:34:02.024Z,6.80
2019-04-28T08:36:25.587Z,7.80
2019-04-28T08:38:53.861Z,7.47
2019-04-28T08:41:22.121Z,6.83
2019-04-28T08:43:50.513Z,7.07
2019-04-28T08:46:19.977Z,6.30
2019-04-28T08:48:48.190Z,7.03
2019-04-28T08:51:16.345Z,6.83
2019-04-28T08:53:45.061Z,7.87
2019-04-28T08:56:13.551Z,7.73
2019-04-28T08:58:41.716Z,8.90
2019-04-28T09:01:09.956Z,7.93
2019-04-28T09:03:38.352Z,8.40
2019-04-28T09:06:06.648Z,9.63
2019-04-28T09:08:34.799Z,10.73
2019-04-28T09:11:02.997Z,8.83
2019-04-28T09:13:31.152Z,7.87
2019-04-28T09:15:59.309Z,9.33
2019-04-28T09:18:28.533Z,7.60
2019-04-28T09:20:57.265Z,8.93
2019-04-28T09:23:25.597Z,8.47
2019-04-28T09:25:54.374Z,8.23
2019-04-28T09:28:22.704Z,9.90
2019-04-28T09:30:51.332Z,8.67
2019-04-28T09:33:19.743Z,8.50
2019-04-28T09:35:48.099Z,9.03
2019-04-28T09:38:16.520Z,8.90
2019-04-28T09:40:44.841Z,8.63
2019-04-28T09:43:20.560Z,10.07
2019-04-28T09:45:50.830Z,10.73
2019-04-28T09:48:20.006Z,12.67
2019-04-28T09:50:48.228Z,15.47
2019-04-28T09:53:16.821Z,12.40
2019-04-28T09:55:45.177Z,13.13
2019-04-28T09:58:13.395Z,14.60
2019-04-28T10:00:41.726Z,10.57
2019-04-28T10:03:10.269Z,13.83
2019-04-28T10:05:39.403Z,11.27
2019-04-28T10:08:07.668Z,8.63
2019-04-28T10:10:35.924Z,11.37
2019-04-28T10:13:04.296Z,8.73
2019-04-28T10:15:33.406Z,8.47
2019-04-28T10:18:02.193Z,10.47
2019-04-28T10:20:30.590Z,10.53
2019-04-28T10:23:00.307Z,10.73
2019-04-28T10:25:28.484Z,10.37
2019-04-28T10:27:58.065Z,13.37
2019-04-28T10:30:26.793Z,10.70
2019-04-28T10:32:55.032Z,9.50
2019-04-28T10:35:23.201Z,8.53
2019-04-28T10:37:51.423Z,7.93
2019-04-28T10:40:28.374Z,8.20
2019-04-28T10:42:56.900Z,11.10
2019-04-28T10:45:26.696Z,11.00
2019-04-28T10:47:55.213Z,13.70
2019-04-28T10:50:24.593Z,10.17
2019-04-28T10:53:10.807Z,10.00
2019-04-28T10:55:39.064Z,9.60
2019-04-28T10:58:07.721Z,9.70
2019-04-28T11:00:37.482Z,11.20
2019-04-28T11:03:06.011Z,16.00
2019-04-28T11:05:35.945Z,11.13
2019-04-28T11:08:06.557Z,10.43
2019-04-28T11:10:35.409Z,10.67
2019-04-28T11:13:04.749Z,12.40
2019-04-28T11:15:34.972Z,12.37
2019-04-28T11:18:04.724Z,9.83
2019-04-28T11:20:33.026Z,10.47
2019-04-28T11:23:01.485Z,9.77
2019-04-28T11:25:29.845Z,11.70
2019-04-28T11:27:58.370Z,10.23
2019-04-28T11:30:28.285Z,8.43
2019-04-28T11:33:10.766Z,12.03
2019-04-28T11:35:40.566Z,7.60
2019-04-28T11:38:09.374Z,9.43
2019-04-28T11:40:37.946Z,9.83
2019-04-28T11:43:06.540Z,10.63
2019-04-28T11:45:34.670Z,10.13
2019-04-28T11:48:02.864Z,10.20
2019-04-28T11:50:31.231Z,10.87
2019-04-28T11:53:00.365Z,12.87
2019-04-28T11:55:29.024Z,9.50
2019-04-28T11:57:57.244Z,10.90
2019-04-28T12:00:27.173Z,9.33
2019-04-28T12:02:55.373Z,7.50
2019-04-28T12:05:34.270Z,10.27
2019-04-28T12:07:55.390Z,8.13
2019-04-28T12:10:31.605Z,10.57
2019-04-28T12:13:01.480Z,7.90
2019-04-28T12:15:34.432Z,8.77
2019-04-28T12:18:04.318Z,10.53
2019-04-28T12:20:34.077Z,7.87
2019-04-28T12:23:06.082Z,9.10
2019-04-28T12:25:37.943Z,6.80
2019-04-28T12:28:06.501Z,7.33
2019-04-28T12:30:35.315Z,8.13
2019-04-28T12:33:03.788Z,8.07
2019-04-28T12:35:32.101Z,9.07
2019-04-28T12:38:00.965Z,8.30
2019-04-28T12:40:30.349Z,9.20
2019-04-28T12:42:59.293Z,8.53
2019-04-28T12:45:34.947Z,10.27
2019-04-28T12:47:58.560Z,8.33
2019-04-28T12:50:33.032Z,9.47
2019-04-28T12:53:01.499Z,8.53
2019-04-28T12:55:31.613Z,9.50
2019-04-28T12:58:04.399Z,9.30
2019-04-28T13:00:40.353Z,11.37
2019-04-28T13:03:12.304Z,12.00
2019-04-28T13:05:42.909Z,12.27
2019-04-28T13:08:11.382Z,11.40
2019-04-28T13:10:40.370Z,11.83
2019-04-28T13:13:08.768Z,10.93
2019-04-28T13:15:37.526Z,11.77
2019-04-28T13:18:10.402Z,11.67
2019-04-28T13:20:38.763Z,11.03
2019-04-28T13:23:07.180Z,37.60
2019-04-28T13:25:35.758Z,17.97
2019-04-28T13:28:04.525Z,12.93
2019-04-28T13:30:32.676Z,10.40
2019-04-28T13:33:00.867Z,8.70
2019-04-28T13:35:29.504Z,8.87
2019-04-28T13:37:57.859Z,9.07
2019-04-28T13:40:30.809Z,8.43
2019-04-28T13:42:59.232Z,9.73
2019-04-28T13:45:29.032Z,12.40
2019-04-28T13:47:57.458Z,9.83
2019-04-28T13:50:39.792Z,46.07
2019-04-28T13:53:08.390Z,78.40
2019-04-28T13:55:48.310Z,28.93
2019-04-28T13:58:19.129Z,8.77
2019-04-28T14:01:05.786Z,10.40
2019-04-28T14:03:41.546Z,31.73
2019-04-28T14:06:27.181Z,60.40
2019-04-28T14:08:45.156Z,15.77
2019-04-28T14:11:13.880Z,15.97
2019-04-28T14:13:43.175Z,8.50
2019-04-28T14:16:11.827Z,8.40
2019-04-28T14:18:40.024Z,8.67
2019-04-28T14:21:08.623Z,10.57
2019-04-28T14:23:36.864Z,8.10
2019-04-28T14:26:05.510Z,9.40
2019-04-28T14:28:34.026Z,20.13
2019-04-28T14:31:02.678Z,14.63
2019-04-28T14:33:31.056Z,19.10
2019-04-28T14:35:59.427Z,16.60
2019-04-28T14:38:27.639Z,13.37
2019-04-28T14:40:55.864Z,11.43
2019-04-28T14:43:24.156Z,11.07
2019-04-28T14:45:52.632Z,9.63
2019-04-28T14:48:21.220Z,11.70
2019-04-28T14:50:49.648Z,50.10
2019-04-28T14:53:21.097Z,18.40
2019-04-28T14:55:49.278Z,12.80
2019-04-28T14:58:17.817Z,11.73
2019-04-28T15:00:51.496Z,9.43
2019-04-28T15:03:21.060Z,29.20
2019-04-28T15:05:51.856Z,10.20
2019-04-28T15:08:24.818Z,13.30
2019-04-28T15:10:54.751Z,11.03
2019-04-28T15:13:23.961Z,14.70
2019-04-28T15:15:52.280Z,10.00
2019-04-28T15:18:21.082Z,29.10
2019-04-28T15:20:49.607Z,49.37
2019-04-28T15:23:17.804Z,21.23
2019-04-28T15:25:46.149Z,95.93
2019-04-28T15:28:14.680Z,93.07
2019-04-28T15:30:42.949Z,51.20
2019-04-28T15:33:11.409Z,24.13
2019-04-28T15:35:40.374Z,20.73
2019-04-28T15:38:08.727Z,11.80
2019-04-28T15:40:36.881Z,63.30
2019-04-28T15:43:05.419Z,89.07
2019-04-28T15:45:34.921Z,72.20
2019-04-28T15:48:03.582Z,60.97
2019-04-28T15:50:31.981Z,28.43
2019-04-28T15:53:00.654Z,36.57
2019-04-28T15:55:33.343Z,27.93
2019-04-28T15:58:03.465Z,41.17
2019-04-28T16:00:32.316Z,26.30
2019-04-28T16:03:01.576Z,41.77
2019-04-28T16:05:29.876Z,27.17
2019-04-28T16:07:58.139Z,34.77
2019-04-28T16:10:26.814Z,66.77
2019-04-28T16:12:55.156Z,24.43
2019-04-28T16:15:23.318Z,27.90
2019-04-28T16:17:51.493Z,18.07
2019-04-28T16:20:20.170Z,25.17
2019-04-28T16:22:48.872Z,26.30
2019-04-28T16:25:17.155Z,21.03
2019-04-28T16:27:45.503Z,31.13
2019-04-28T16:30:14.239Z,18.63
2019-04-28T16:32:44.681Z,20.57
2019-04-28T16:35:15.375Z,19.63
2019-04-28T16:37:46.018Z,15.67
2019-04-28T16:40:14.982Z,22.63
2019-04-28T16:42:52.049Z,17.13
2019-04-28T16:45:21.176Z,19.90
2019-04-28T16:47:49.520Z,14.63
2019-04-28T16:50:17.932Z,16.77
2019-04-28T16:52:47.270Z,17.53
2019-04-28T16:55:24.293Z,14.13
2019-04-28T16:57:54.320Z,10.20
2019-04-28T17:00:43.135Z,13.03
2019-04-28T17:03:11.361Z,45.87
2019-04-28T17:05:40.530Z,124.20
2019-04-28T17:08:09.032Z,22.57
2019-04-28T17:10:40.553Z,19.83
2019-04-28T17:13:09.273Z,29.17
2019-04-28T17:15:37.724Z,31.73
2019-04-28T17:18:06.168Z,48.17
2019-04-28T17:20:34.392Z,65.83
2019-04-28T17:23:02.872Z,51.27
2019-04-28T17:25:31.527Z,56.80
2019-04-28T17:28:00.618Z,30.77
2019-04-28T17:30:29.920Z,25.77
2019-04-28T17:32:58.280Z,19.13
2019-04-28T17:35:27.066Z,18.73
2019-04-28T17:38:05.980Z,37.43
2019-04-28T17:40:33.533Z,55.60
2019-04-28T17:43:02.092Z,61.13
2019-04-28T17:45:33.011Z,85.00
2019-04-28T17:48:02.942Z,38.63
2019-04-28T17:50:31.731Z,39.90
2019-04-28T17:53:00.124Z,32.10
2019-04-28T17:55:28.683Z,26.63
2019-04-28T17:57:57.532Z,22.77
2019-04-28T18:00:30.387Z,32.53
2019-04-28T18:03:00.565Z,41.30
2019-04-28T18:05:33.671Z,46.80
2019-04-28T18:08:02.869Z,27.03
2019-04-28T18:10:32.934Z,33.97
2019-04-28T18:13:01.361Z,33.80
2019-04-28T18:15:31.229Z,29.57
2019-04-28T18:18:01.394Z,24.00
2019-04-28T18:20:29.955Z,27.77
2019-04-28T18:22:58.444Z,28.17
2019-04-28T18:25:27.428Z,32.47
2019-04-28T18:27:55.869Z,28.93
2019-04-28T18:30:26.035Z,31.93
2019-04-28T18:33:07.930Z,36.83
2019-04-28T18:35:37.941Z,38.67
2019-04-28T18:38:13.593Z,18.00
2019-04-28T18:40:43.825Z,22.67
2019-04-28T18:43:16.535Z,36.23
2019-04-28T18:45:44.749Z,110.60
2019-04-28T18:48:13.371Z,63.20
2019-04-28T18:50:42.132Z,49.87
2019-04-28T18:53:10.605Z,32.70
2019-04-28T18:55:38.791Z,17.27
2019-04-28T18:58:07.057Z,21.70
2019-04-28T19:00:36.872Z,13.63
2019-04-28T19:03:05.238Z,15.67
2019-04-28T19:05:35.365Z,23.77
2019-04-28T19:08:05.395Z,27.00
2019-04-28T19:10:40.344Z,58.50
2019-04-28T19:13:16.655Z,20.87
2019-04-28T19:16:03.165Z,14.50
2019-04-28T19:18:33.218Z,15.17
2019-04-28T19:21:01.417Z,12.47
2019-04-28T19:23:29.736Z,29.13
2019-04-28T19:25:58.013Z,27.63
2019-04-28T19:28:26.361Z,23.83
2019-04-28T19:30:57.012Z,15.87
2019-04-28T19:33:25.393Z,28.97
2019-04-28T19:35:53.561Z,15.23
2019-04-28T19:38:22.132Z,11.23
2019-04-28T19:40:50.640Z,11.33
2019-04-28T19:43:19.617Z,31.90
2019-04-28T19:45:49.389Z,34.93
2019-04-28T19:48:17.546Z,31.77
2019-04-28T19:50:46.015Z,34.20
2019-04-28T19:53:14.624Z,19.67
2019-04-28T19:56:00.728Z,16.87
2019-04-28T19:58:30.709Z,18.23
2019-04-28T20:01:06.328Z,9.07
2019-04-28T20:03:35.153Z,30.73
2019-04-28T20:06:03.592Z,43.27
2019-04-28T20:08:32.096Z,24.20
2019-04-28T20:11:04.273Z,46.10
2019-04-28T20:13:32.745Z,32.20
2019-04-28T20:16:01.508Z,21.73
2019-04-28T20:18:29.853Z,16.43
2019-04-28T20:20:58.036Z,16.37
2019-04-28T20:23:26.890Z,15.30
2019-04-28T20:25:56.990Z,13.27
2019-04-28T20:28:25.470Z,12.73
2019-04-28T20:30:54.323Z,10.00
2019-04-28T20:33:22.624Z,8.10
2019-04-28T20:36:02.157Z,5.37
2019-04-28T20:38:32.121Z,6.43
2019-04-28T20:41:05.075Z,6.67
2019-04-28T20:43:33.588Z,5.10
2019-04-28T20:46:01.922Z,5.10
2019-04-28T20:48:30.784Z,4.60
2019-04-28T20:50:58.931Z,4.40
2019-04-28T20:53:27.567Z,4.00
2019-04-28T20:55:55.785Z,5.60
2019-04-28T20:58:24.308Z,6.03
2019-04-28T21:00:52.906Z,7.30
2019-04-28T21:03:21.171Z,7.80
2019-04-28T21:05:49.696Z,9.63
2019-04-28T21:08:18.161Z,8.10
2019-04-28T21:10:46.683Z,7.87
2019-04-28T21:13:15.894Z,7.60
2019-04-28T21:15:44.166Z,8.70
2019-04-28T21:18:12.889Z,5.57
2019-04-28T21:20:41.903Z,6.73
2019-04-28T21:23:10.295Z,9.47
2019-04-28T21:25:38.711Z,14.40
2019-04-28T21:28:07.606Z,11.23
2019-04-28T21:30:36.189Z,9.50
2019-04-28T21:33:04.361Z,7.07
2019-04-28T21:35:32.800Z,6.10
2019-04-28T21:38:00.990Z,7.53
2019-04-28T21:40:29.315Z,8.30
2019-04-28T21:43:02.686Z,7.47
2019-04-28T21:45:32.899Z,5.10
2019-04-28T21:48:01.053Z,7.20
2019-04-28T21:50:29.324Z,6.63
2019-04-28T21:52:57.524Z,6.40
2019-04-28T21:55:25.911Z,7.00
2019-04-28T21:57:54.064Z,5.00
2019-04-28T22:00:23.895Z,7.23
2019-04-28T22:02:52.372Z,6.07
2019-04-28T22:05:30.192Z,6.33
2019-04-28T22:07:50.696Z,5.13
2019-04-28T22:10:18.853Z,6.10
2019-04-28T22:12:47.425Z,6.20
2019-04-28T22:15:16.656Z,6.40
2019-04-28T22:17:44.910Z,6.77
2019-04-28T22:20:13.217Z,10.73
2019-04-28T22:22:41.402Z,6.27
2019-04-28T22:25:17.616Z,8.70
2019-04-28T22:27:45.981Z,8.73
2019-04-28T22:30:14.501Z,8.73
2019-04-28T22:32:42.652Z,6.80
2019-04-28T22:35:10.925Z,21.20
2019-04-28T22:37:39.164Z,6.80
2019-04-28T22:40:07.394Z,8.03
2019-04-28T22:42:35.579Z,6.83
2019-04-28T22:45:05.598Z,7.47
2019-04-28T22:47:33.758Z,6.60
2019-04-28T22:50:01.952Z,5.87
2019-04-28T22:52:30.932Z,5.97
2019-04-28T22:55:00.723Z,4.90
2019-04-28T22:57:45.532Z,6.03
2019-04-28T23:00:23.217Z,6.97
2019-04-28T23:02:51.850Z,4.30
2019-04-28T23:05:19.979Z,4.40
2019-04-28T23:07:48.180Z,5.23
2019-04-28T23:10:16.932Z,6.27
2019-04-28T23:12:45.156Z,11.00
2019-04-28T23:15:14.082Z,11.40
2019-04-28T23:17:43.570Z,7.67
2019-04-28T23:20:12.572Z,4.17
2019-04-28T23:22:48.428Z,4.53
2019-04-28T23:25:17.001Z,4.60
2019-04-28T23:27:45.154Z,3.00
2019-04-28T23:30:15.255Z,2.93
2019-04-28T23:32:43.602Z,2.97
2019-04-28T23:35:11.760Z,3.00
2019-04-28T23:37:39.954Z,2.63
2019-04-28T23:40:08.104Z,2.80
2019-04-28T23:42:38.062Z,3.50
2019-04-28T23:45:06.337Z,2.83
2019-04-28T23:47:34.757Z,3.77
2019-04-28T23:50:04.452Z,2.80
2019-04-28T23:52:34.803Z,2.50
2019-04-28T23:55:04.951Z,5.03
2019-04-28T23:57:33.296Z,6.00
